Terminal Aerodrome Forecast
Issued by NWS

Home | Current Version | Previous Version | Text Only | Print | Product List | Glossary On
Versions: 1 2 3 4 5 6 7 8 9 10 11 12 13 14 15 16 17 18 19 20
000
FTUS41 KGYX 011628 AAB
TAFPSM
TAF AMD
KPSM 011628Z 0116/0212 02009KT 2SM -DZ BR OVC004
      TEMPO 0116/0118 1SM -DZ BR OVC002=

USA.gov is the U.S. government's official web portal to all federal, state and local government web resources and services.